createdAt,value
2019-04-06T00:00:26.138Z,24.90
2019-04-06T00:02:55.246Z,25.77
2019-04-06T00:05:24.371Z,25.80
2019-04-06T00:07:53.471Z,24.70
2019-04-06T00:10:22.563Z,26.20
2019-04-06T00:12:51.663Z,25.13
2019-04-06T00:15:20.818Z,25.20
2019-04-06T00:17:49.949Z,26.80
2019-04-06T00:20:19.065Z,25.07
2019-04-06T00:22:48.470Z,26.50
2019-04-06T00:25:17.603Z,25.30
2019-04-06T00:27:46.650Z,26.43
2019-04-06T00:30:16.123Z,27.33
2019-04-06T00:32:58.404Z,27.53
2019-04-06T00:35:27.441Z,26.97
2019-04-06T00:37:56.643Z,27.00
2019-04-06T00:40:25.895Z,25.90
2019-04-06T00:42:54.939Z,27.77
2019-04-06T00:45:24.407Z,27.47
2019-04-06T00:47:53.518Z,27.70
2019-04-06T00:50:23.047Z,29.20
2019-04-06T00:52:52.227Z,29.33
2019-04-06T00:55:21.355Z,27.97
2019-04-06T00:57:50.392Z,28.70
2019-04-06T01:00:19.840Z,28.03
2019-04-06T01:02:49.028Z,26.13
2019-04-06T01:05:18.132Z,30.23
2019-04-06T01:07:47.756Z,29.27
2019-04-06T01:10:16.932Z,29.47
2019-04-06T01:12:46.148Z,28.30
2019-04-06T01:15:15.456Z,30.57
2019-04-06T01:17:44.665Z,30.73
2019-04-06T01:20:13.921Z,31.23
2019-04-06T01:22:43.152Z,30.40
2019-04-06T01:25:12.332Z,31.33
2019-04-06T01:27:41.516Z,31.50
2019-04-06T01:30:11.396Z,33.30
2019-04-06T01:32:40.568Z,31.80
2019-04-06T01:35:09.780Z,33.83
2019-04-06T01:37:38.965Z,32.73
2019-04-06T01:40:08.167Z,35.20
2019-04-06T01:42:37.188Z,33.07
2019-04-06T01:45:06.446Z,35.30
2019-04-06T01:47:35.560Z,35.47
2019-04-06T01:50:04.744Z,37.70
2019-04-06T01:52:33.804Z,36.37
2019-04-06T01:55:03.236Z,35.77
2019-04-06T01:57:32.367Z,36.13
2019-04-06T02:00:01.645Z,38.00
2019-04-06T02:02:35.919Z,36.20
2019-04-06T02:05:05.949Z,36.97
2019-04-06T02:07:35.142Z,37.90
2019-04-06T02:10:04.662Z,39.17
2019-04-06T02:12:33.818Z,39.17
2019-04-06T02:15:03.111Z,38.17
2019-04-06T02:17:32.159Z,38.37
2019-04-06T02:20:01.230Z,36.80
2019-04-06T02:22:30.630Z,37.80
2019-04-06T02:24:59.651Z,37.20
2019-04-06T02:27:28.731Z,38.13
2019-04-06T02:30:34.955Z,38.50
2019-04-06T02:33:14.234Z,37.10
2019-04-06T02:35:51.875Z,37.73
2019-04-06T02:38:36.601Z,39.10
2019-04-06T02:41:14.325Z,38.20
2019-04-06T02:43:43.392Z,38.07
2019-04-06T02:46:12.621Z,38.07
2019-04-06T02:48:41.847Z,39.57
2019-04-06T02:51:10.920Z,39.80
2019-04-06T02:53:40.016Z,41.07
2019-04-06T02:56:09.311Z,39.40
2019-04-06T02:58:38.348Z,40.53
2019-04-06T03:01:07.548Z,40.23
2019-04-06T03:03:36.627Z,40.20
2019-04-06T03:06:05.804Z,41.30
2019-04-06T03:08:35.231Z,41.30
2019-04-06T03:11:04.473Z,38.63
2019-04-06T03:13:33.640Z,39.83
2019-04-06T03:16:03.183Z,42.27
2019-04-06T03:18:32.360Z,40.23
2019-04-06T03:21:01.745Z,39.87
2019-04-06T03:23:31.084Z,40.30
2019-04-06T03:26:00.269Z,41.33
2019-04-06T03:28:29.582Z,39.73
2019-04-06T03:30:59.010Z,40.97
2019-04-06T03:33:28.351Z,41.43
2019-04-06T03:35:57.763Z,40.27
2019-04-06T03:38:27.064Z,40.33
2019-04-06T03:40:56.356Z,42.27
2019-04-06T03:43:25.629Z,42.00
2019-04-06T03:45:54.661Z,41.33
2019-04-06T03:48:23.684Z,40.67
2019-04-06T03:50:52.816Z,39.97
2019-04-06T03:53:21.971Z,42.37
2019-04-06T03:55:51.196Z,40.00
2019-04-06T03:58:20.488Z,42.63
2019-04-06T04:00:49.476Z,42.60
2019-04-06T04:03:18.351Z,42.70
2019-04-06T04:05:47.380Z,41.37
2019-04-06T04:08:16.553Z,39.77
2019-04-06T04:10:47.360Z,41.43
2019-04-06T04:13:16.642Z,41.37
2019-04-06T04:15:45.792Z,42.77
2019-04-06T04:18:14.967Z,41.70
2019-04-06T04:20:44.114Z,43.50
2019-04-06T04:23:13.139Z,43.43
2019-04-06T04:25:42.125Z,43.37
2019-04-06T04:28:11.176Z,40.53
2019-04-06T04:30:40.444Z,42.03
2019-04-06T04:33:09.417Z,42.07
2019-04-06T04:35:38.486Z,40.70
2019-04-06T04:38:07.439Z,41.57
2019-04-06T04:40:37.235Z,42.87
2019-04-06T04:43:06.274Z,40.93
2019-04-06T04:45:35.650Z,43.50
2019-04-06T04:48:04.764Z,41.93
2019-04-06T04:50:33.773Z,41.50
2019-04-06T04:53:02.708Z,43.20
2019-04-06T04:55:31.668Z,41.50
2019-04-06T04:58:01.283Z,41.50
2019-04-06T05:00:30.237Z,39.67
2019-04-06T05:02:59.312Z,41.37
2019-04-06T05:05:28.284Z,41.23
2019-04-06T05:07:57.216Z,42.10
2019-04-06T05:10:26.132Z,41.53
2019-04-06T05:12:55.026Z,41.33
2019-04-06T05:15:52.680Z,41.00
2019-04-06T05:18:21.653Z,41.03
2019-04-06T05:20:50.665Z,40.03
2019-04-06T05:23:19.862Z,42.23
2019-04-06T05:25:48.917Z,41.03
2019-04-06T05:28:17.808Z,40.47
2019-04-06T05:30:46.965Z,41.40
2019-04-06T05:33:16.129Z,41.53
2019-04-06T05:35:45.182Z,41.97
2019-04-06T05:38:14.099Z,43.27
2019-04-06T05:40:43.240Z,41.83
2019-04-06T05:43:12.261Z,42.57
2019-04-06T05:45:41.141Z,42.40
2019-04-06T05:48:10.093Z,42.67
2019-04-06T05:50:39.157Z,41.77
2019-04-06T05:53:08.213Z,41.23
2019-04-06T05:55:37.350Z,43.40
2019-04-06T05:58:09.869Z,42.10
2019-04-06T06:00:40.144Z,41.80
2019-04-06T06:03:10.176Z,43.80
2019-04-06T06:05:40.974Z,42.87
2019-04-06T06:08:10.302Z,41.33
2019-04-06T06:10:39.313Z,43.30
2019-04-06T06:13:08.353Z,43.27
2019-04-06T06:15:37.361Z,44.50
2019-04-06T06:18:06.462Z,43.47
2019-04-06T06:20:35.673Z,43.30
2019-04-06T06:23:05.181Z,42.20
2019-04-06T06:25:34.184Z,42.53
2019-04-06T06:28:13.874Z,43.27
2019-04-06T06:30:34.121Z,42.27
2019-04-06T06:33:03.499Z,44.37
2019-04-06T06:35:32.526Z,41.93
2019-04-06T06:38:01.585Z,45.93
2019-04-06T06:40:30.686Z,45.40
2019-04-06T06:42:59.575Z,46.37
2019-04-06T06:45:28.634Z,44.53
2019-04-06T06:47:57.670Z,43.97
2019-04-06T06:50:26.734Z,45.30
2019-04-06T06:52:55.703Z,45.43
2019-04-06T06:55:26.634Z,45.30
2019-04-06T06:57:55.369Z,47.67
2019-04-06T07:00:24.805Z,45.63
2019-04-06T07:02:53.866Z,46.43
2019-04-06T07:05:22.942Z,46.23
2019-04-06T07:07:51.906Z,47.17
2019-04-06T07:10:20.974Z,46.00
2019-04-06T07:12:49.903Z,47.43
2019-04-06T07:15:19.263Z,46.60
2019-04-06T07:17:48.366Z,50.17
2019-04-06T07:20:17.411Z,47.87
2019-04-06T07:22:46.593Z,49.17
2019-04-06T07:25:15.806Z,48.40
2019-04-06T07:27:44.903Z,48.90
2019-04-06T07:30:14.249Z,48.47
2019-04-06T07:32:43.248Z,51.97
2019-04-06T07:35:12.354Z,51.10
2019-04-06T07:37:41.550Z,49.20
2019-04-06T07:40:11.562Z,49.53
2019-04-06T07:42:40.625Z,49.27
2019-04-06T07:45:10.504Z,49.37
2019-04-06T07:47:41.577Z,49.63
2019-04-06T07:50:11.090Z,50.33
2019-04-06T07:52:40.051Z,49.87
2019-04-06T07:55:09.111Z,50.00
2019-04-06T07:57:38.715Z,51.27
2019-04-06T08:00:08.731Z,50.40
2019-04-06T08:02:37.810Z,52.07
2019-04-06T08:05:07.156Z,50.83
2019-04-06T08:07:36.259Z,50.13
2019-04-06T08:10:06.059Z,50.43
2019-04-06T08:12:35.095Z,51.20
2019-04-06T08:15:04.672Z,50.17
2019-04-06T08:17:33.695Z,48.33
2019-04-06T08:20:02.931Z,50.83
2019-04-06T08:22:31.983Z,46.40
2019-04-06T08:25:00.991Z,48.57
2019-04-06T08:27:30.279Z,49.53
2019-04-06T08:29:59.324Z,50.70
2019-04-06T08:32:28.335Z,48.40
2019-04-06T08:35:24.758Z,49.90
2019-04-06T08:37:45.366Z,47.50
2019-04-06T08:40:14.752Z,49.73
2019-04-06T08:42:43.710Z,49.30
2019-04-06T08:45:14.128Z,47.60
2019-04-06T08:47:43.667Z,49.13
2019-04-06T08:50:12.928Z,48.57
2019-04-06T08:52:42.058Z,47.10
2019-04-06T08:55:11.411Z,50.40
2019-04-06T08:57:40.448Z,48.23
2019-04-06T09:00:10.052Z,48.97
2019-04-06T09:02:39.759Z,47.03
2019-04-06T09:05:09.096Z,46.17
2019-04-06T09:07:40.593Z,46.17
2019-04-06T09:10:09.264Z,47.40
2019-04-06T09:12:38.360Z,47.90
2019-04-06T09:15:07.840Z,47.07
2019-04-06T09:17:37.082Z,47.57
2019-04-06T09:20:07.029Z,46.50
2019-04-06T09:22:36.344Z,46.13
2019-04-06T09:25:05.824Z,45.37
2019-04-06T09:27:35.240Z,45.03
2019-04-06T09:30:06.113Z,44.30
2019-04-06T09:32:35.620Z,45.23
2019-04-06T09:35:05.620Z,44.73
2019-04-06T09:37:35.047Z,44.47
2019-04-06T09:40:04.846Z,43.53
2019-04-06T09:42:34.337Z,45.53
2019-04-06T09:45:21.197Z,44.20
2019-04-06T09:48:12.424Z,43.77
2019-04-06T09:50:56.305Z,44.80
2019-04-06T09:53:35.291Z,42.57
2019-04-06T09:56:14.288Z,44.90
2019-04-06T09:59:03.378Z,44.23
2019-04-06T10:01:50.065Z,41.97
2019-04-06T10:04:41.261Z,43.00
2019-04-06T10:07:37.665Z,43.03
2019-04-06T10:10:26.442Z,43.67
2019-04-06T10:13:33.236Z,41.70
2019-04-06T10:16:21.690Z,41.97
2019-04-06T10:19:21.192Z,40.50
2019-04-06T10:22:00.756Z,40.50
2019-04-06T10:24:52.218Z,42.83
2019-04-06T10:27:43.424Z,41.13
2019-04-06T10:30:39.650Z,41.33
2019-04-06T10:33:15.355Z,42.33
2019-04-06T10:36:15.817Z,41.73
2019-04-06T10:39:05.601Z,42.90
2019-04-06T10:41:52.430Z,44.53
2019-04-06T10:44:50.036Z,43.60
2019-04-06T10:47:47.603Z,44.20
2019-04-06T10:50:33.594Z,42.20
2019-04-06T10:53:20.730Z,42.13
2019-04-06T10:56:24.249Z,43.03
2019-04-06T10:59:11.806Z,42.67
2019-04-06T11:01:52.927Z,44.77
2019-04-06T11:04:26.261Z,43.33
2019-04-06T11:07:20.710Z,42.80
2019-04-06T11:10:08.814Z,41.83
2019-04-06T11:12:59.698Z,42.90
2019-04-06T11:15:41.478Z,41.23
2019-04-06T11:18:28.307Z,42.23
2019-04-06T11:21:13.431Z,42.40
2019-04-06T11:24:02.617Z,41.50
2019-04-06T11:26:51.269Z,42.53
2019-04-06T11:29:45.514Z,41.43
2019-04-06T11:32:30.835Z,43.07
2019-04-06T11:35:22.094Z,43.50
2019-04-06T11:38:22.326Z,43.47
2019-04-06T11:41:09.371Z,43.43
2019-04-06T11:43:53.235Z,42.03
2019-04-06T11:46:27.630Z,43.23
2019-04-06T11:49:14.139Z,43.97
2019-04-06T11:52:14.430Z,40.13
2019-04-06T11:54:59.079Z,39.10
2019-04-06T11:57:40.139Z,41.00
2019-04-06T12:00:33.177Z,39.83
2019-04-06T12:03:24.504Z,40.63
2019-04-06T12:06:22.864Z,39.27
2019-04-06T12:09:06.639Z,39.53
2019-04-06T12:11:52.001Z,41.87
2019-04-06T12:14:42.310Z,41.53
2019-04-06T12:17:36.573Z,41.10
2019-04-06T12:20:25.010Z,40.17
2019-04-06T12:23:12.011Z,39.77
2019-04-06T12:26:09.448Z,40.47
2019-04-06T12:28:47.715Z,40.30
2019-04-06T12:31:39.126Z,42.03
2019-04-06T12:34:24.723Z,40.27
2019-04-06T12:37:11.329Z,41.73
2019-04-06T12:39:53.453Z,40.63
2019-04-06T12:42:35.588Z,42.57
2019-04-06T12:45:32.966Z,41.57
2019-04-06T12:48:20.988Z,38.63
2019-04-06T12:51:15.016Z,41.80
2019-04-06T12:53:56.457Z,42.23
2019-04-06T12:56:43.354Z,41.43
2019-04-06T12:59:38.099Z,40.73
2019-04-06T13:02:26.377Z,40.97
2019-04-06T13:05:12.482Z,40.10
2019-04-06T13:07:58.332Z,42.37
2019-04-06T13:10:45.480Z,40.27
2019-04-06T13:13:20.265Z,40.90
2019-04-06T13:16:26.736Z,39.70
2019-04-06T13:19:10.880Z,39.83
2019-04-06T13:21:57.696Z,42.23
2019-04-06T13:24:52.116Z,40.43
2019-04-06T13:27:58.776Z,40.77
2019-04-06T13:30:34.752Z,40.33
2019-04-06T13:33:11.272Z,40.07
2019-04-06T13:35:58.346Z,41.00
2019-04-06T13:38:46.727Z,40.67
2019-04-06T13:41:41.324Z,38.17
2019-04-06T13:44:24.253Z,37.43
2019-04-06T13:47:05.785Z,36.83
2019-04-06T13:49:45.797Z,34.83
2019-04-06T13:52:29.695Z,33.17
2019-04-06T13:55:21.091Z,33.93
2019-04-06T13:57:57.770Z,34.90
2019-04-06T14:00:44.553Z,33.13
2019-04-06T14:04:04.901Z,32.13
2019-04-06T14:07:07.365Z,33.27
2019-04-06T14:09:58.425Z,32.90
2019-04-06T14:12:52.861Z,31.93
2019-04-06T14:15:39.486Z,31.10
2019-04-06T14:18:26.026Z,31.03
2019-04-06T14:21:12.991Z,30.83
2019-04-06T14:23:52.715Z,29.97
2019-04-06T14:26:53.152Z,32.17
2019-04-06T14:29:29.482Z,31.37
2019-04-06T14:32:12.186Z,31.50
2019-04-06T14:34:56.302Z,31.57
2019-04-06T14:37:59.823Z,32.83
2019-04-06T14:40:50.742Z,31.87
2019-04-06T14:43:47.738Z,32.60
2019-04-06T14:46:35.474Z,31.03
2019-04-06T14:49:31.269Z,31.57
2019-04-06T14:52:12.262Z,31.70
2019-04-06T14:55:03.648Z,30.53
2019-04-06T14:57:57.905Z,32.03
2019-04-06T15:01:01.058Z,32.83
2019-04-06T15:03:58.199Z,31.33
2019-04-06T15:06:45.198Z,32.73
2019-04-06T15:09:30.045Z,31.97
2019-04-06T15:12:14.801Z,32.67
2019-04-06T15:15:06.267Z,33.50
2019-04-06T15:17:56.858Z,31.27
2019-04-06T15:21:00.607Z,31.13
2019-04-06T15:23:40.932Z,31.47
2019-04-06T15:26:41.297Z,31.33
2019-04-06T15:29:21.423Z,31.80
2019-04-06T15:32:15.675Z,32.77
2019-04-06T15:35:04.069Z,30.77
2019-04-06T15:37:55.063Z,30.80
2019-04-06T15:40:41.877Z,31.40
2019-04-06T15:43:27.321Z,31.23
2019-04-06T15:46:21.187Z,30.53
2019-04-06T15:49:08.291Z,29.77
2019-04-06T15:51:48.783Z,31.07
2019-04-06T15:54:39.944Z,30.83
2019-04-06T15:57:20.219Z,30.17
2019-04-06T16:00:04.550Z,30.40
2019-04-06T16:02:55.584Z,29.67
2019-04-06T16:05:33.164Z,30.43
2019-04-06T16:08:12.183Z,29.20
2019-04-06T16:10:51.295Z,29.87
2019-04-06T16:13:54.654Z,30.37
2019-04-06T16:16:44.916Z,29.73
2019-04-06T16:19:32.064Z,28.93
2019-04-06T16:22:18.748Z,28.50
2019-04-06T16:25:34.956Z,30.13
2019-04-06T16:29:12.196Z,29.73
2019-04-06T16:31:47.973Z,28.87
2019-04-06T16:34:45.762Z,27.13
2019-04-06T16:37:39.645Z,27.67
2019-04-06T16:40:27.765Z,28.53
2019-04-06T16:43:04.015Z,27.83
2019-04-06T16:45:59.064Z,27.00
2019-04-06T16:48:45.932Z,27.23
2019-04-06T16:51:37.397Z,27.77
2019-04-06T16:54:34.959Z,26.10
2019-04-06T16:57:22.801Z,27.33
2019-04-06T17:00:18.463Z,28.13
2019-04-06T17:03:03.092Z,27.10
2019-04-06T17:05:43.381Z,25.83
2019-04-06T17:08:34.493Z,27.20
2019-04-06T17:11:33.786Z,26.67
2019-04-06T17:14:19.277Z,26.90
2019-04-06T17:17:06.329Z,26.90
2019-04-06T17:19:53.854Z,27.70
2019-04-06T17:22:47.746Z,26.30
2019-04-06T17:25:24.806Z,25.50
2019-04-06T17:28:03.103Z,27.13
2019-04-06T17:30:51.157Z,27.70
2019-04-06T17:33:45.026Z,27.03
2019-04-06T17:36:24.455Z,27.50
2019-04-06T17:39:15.670Z,27.77
2019-04-06T17:42:10.094Z,26.90
2019-04-06T17:44:57.092Z,27.73
2019-04-06T17:47:35.466Z,28.67
2019-04-06T17:50:42.247Z,29.33
2019-04-06T17:53:36.138Z,31.33
2019-04-06T17:56:42.511Z,32.47
2019-04-06T17:59:39.579Z,31.33
2019-04-06T18:02:26.239Z,33.30
2019-04-06T18:05:01.591Z,31.17
2019-04-06T18:07:55.695Z,31.00
2019-04-06T18:10:56.279Z,30.97
2019-04-06T18:13:52.190Z,31.83
2019-04-06T18:16:49.779Z,30.90
2019-04-06T18:19:18.659Z,30.97
2019-04-06T18:21:48.133Z,31.30
2019-04-06T18:24:17.207Z,29.37
2019-04-06T18:27:27.519Z,30.77
2019-04-06T18:29:56.735Z,28.73
2019-04-06T18:32:40.588Z,28.93
2019-04-06T18:35:37.355Z,29.83
2019-04-06T18:38:25.539Z,27.87
2019-04-06T18:40:54.641Z,28.10
2019-04-06T18:43:24.271Z,27.63
2019-04-06T18:45:53.468Z,27.93
2019-04-06T18:48:22.577Z,28.13
2019-04-06T18:50:51.940Z,28.30
2019-04-06T18:53:21.028Z,27.57
2019-04-06T18:55:50.058Z,29.63
2019-04-06T18:59:23.236Z,29.13
2019-04-06T19:01:52.359Z,28.17
2019-04-06T19:04:21.487Z,29.53
2019-04-06T19:09:38.739Z,29.07
2019-04-06T19:12:40.811Z,28.63
2019-04-06T19:15:10.691Z,28.80
2019-04-06T19:17:39.831Z,26.97
2019-04-06T19:20:10.457Z,26.27
2019-04-06T19:22:41.299Z,25.17
2019-04-06T19:25:10.500Z,25.60
2019-04-06T19:27:39.442Z,25.50
2019-04-06T19:30:10.069Z,24.97
2019-04-06T19:32:39.299Z,25.43
2019-04-06T19:35:08.956Z,25.57
2019-04-06T19:37:38.532Z,25.30
2019-04-06T19:40:08.384Z,25.87
2019-04-06T19:42:37.490Z,26.00
2019-04-06T19:45:07.548Z,26.20
2019-04-06T19:47:37.052Z,25.73
2019-04-06T19:50:07.567Z,26.23
2019-04-06T19:52:36.648Z,24.70
2019-04-06T19:55:08.989Z,27.47
2019-04-06T19:57:38.303Z,26.33
2019-04-06T20:00:08.487Z,25.70
2019-04-06T20:02:37.999Z,27.37
2019-04-06T20:05:08.382Z,26.47
2019-04-06T20:07:38.083Z,27.63
2019-04-06T20:10:08.715Z,28.07
2019-04-06T20:12:37.760Z,27.13
2019-04-06T20:15:07.968Z,27.30
2019-04-06T20:17:37.406Z,28.27
2019-04-06T20:20:06.810Z,28.80
2019-04-06T20:25:37.431Z,28.90
2019-04-06T20:28:06.681Z,28.77
2019-04-06T20:30:35.788Z,28.10
2019-04-06T20:33:05.041Z,27.83
2019-04-06T20:35:34.272Z,27.70
2019-04-06T20:38:03.236Z,29.43
2019-04-06T20:40:32.408Z,28.77
2019-04-06T20:43:36.757Z,28.43
2019-04-06T20:46:05.828Z,28.93
2019-04-06T20:48:35.052Z,27.57
2019-04-06T20:51:22.575Z,29.23
2019-04-06T20:53:52.092Z,28.77
2019-04-06T20:56:21.045Z,28.87
2019-04-06T20:58:50.109Z,29.37
2019-04-06T21:01:19.132Z,29.27
2019-04-06T21:03:59.211Z,29.57
2019-04-06T21:06:19.132Z,30.23
2019-04-06T21:08:48.172Z,29.93
2019-04-06T21:11:17.416Z,30.30
2019-04-06T21:13:46.969Z,30.13
2019-04-06T21:16:16.013Z,29.90
2019-04-06T21:18:44.893Z,29.87
2019-04-06T21:21:14.380Z,29.60
2019-04-06T21:23:44.075Z,28.13
2019-04-06T21:26:13.513Z,29.93
2019-04-06T21:28:42.448Z,29.90
2019-04-06T21:31:12.161Z,30.10
2019-04-06T21:33:41.629Z,28.60
2019-04-06T21:36:10.690Z,29.57
2019-04-06T21:38:40.075Z,28.90
2019-04-06T21:41:09.046Z,28.70
2019-04-06T21:43:38.083Z,30.67
2019-04-06T21:46:07.730Z,30.17
2019-04-06T21:48:36.845Z,30.63
2019-04-06T21:51:06.574Z,29.67
2019-04-06T21:53:35.825Z,30.80
2019-04-06T21:56:07.576Z,31.60
2019-04-06T21:58:36.365Z,31.37
2019-04-06T22:01:07.071Z,31.07
2019-04-06T22:03:36.536Z,32.03
2019-04-06T22:06:05.723Z,29.97
2019-04-06T22:08:35.473Z,29.87
2019-04-06T22:11:06.110Z,29.90
2019-04-06T22:13:35.438Z,31.07
2019-04-06T22:16:04.963Z,29.20
2019-04-06T22:18:34.062Z,30.27
2019-04-06T22:21:03.122Z,30.50
2019-04-06T22:23:41.032Z,29.23
2019-04-06T22:26:02.818Z,29.33
2019-04-06T22:28:32.253Z,30.43
2019-04-06T22:31:01.807Z,29.53
2019-04-06T22:33:30.898Z,29.63
2019-04-06T22:35:59.934Z,29.33
2019-04-06T22:38:29.154Z,29.90
2019-04-06T22:40:58.582Z,30.50
2019-04-06T22:43:27.502Z,30.73
2019-04-06T22:45:56.494Z,30.43
2019-04-06T22:48:25.480Z,30.13
2019-04-06T22:50:54.499Z,30.50
2019-04-06T22:53:35.987Z,30.60
2019-04-06T22:56:05.509Z,31.27
2019-04-06T22:58:34.593Z,30.93
2019-04-06T23:01:09.750Z,30.73
2019-04-06T23:04:13.385Z,32.67
2019-04-06T23:06:46.064Z,31.27
2019-04-06T23:09:15.339Z,30.67
2019-04-06T23:11:44.740Z,30.37
2019-04-06T23:14:13.807Z,30.13
2019-04-06T23:16:42.775Z,30.07
2019-04-06T23:19:12.130Z,32.13
2019-04-06T23:21:41.487Z,30.83
2019-04-06T23:24:10.976Z,31.43
2019-04-06T23:26:41.030Z,30.20
2019-04-06T23:29:10.497Z,30.93
2019-04-06T23:31:40.037Z,29.83
2019-04-06T23:34:09.007Z,31.27
2019-04-06T23:36:37.995Z,31.77
2019-04-06T23:39:08.047Z,31.47
2019-04-06T23:41:37.838Z,30.83
2019-04-06T23:44:07.035Z,31.47
2019-04-06T23:46:35.908Z,31.53
2019-04-06T23:49:26.193Z,30.37
2019-04-06T23:51:49.372Z,33.33
2019-04-06T23:54:18.348Z,32.17
2019-04-06T23:56:47.562Z,32.30
2019-04-06T23:59:16.517Z,31.43
